Time;durP1;ratioP1;P1;durP2;ratioP2;P2;SDS_P1;SDS_P2;PMS_P1;PMS_P2;Temp;Humidity;BMP_temperature;BMP_pressure;BME280_temperature;BME280_humidity;BME280_pressure;Samples;Min_cycle;Max_cycle;Signal;HPM_P1;HPM_P2
2023/04/29 00:02:22;;;;;;;0.40;0.30;;;;;;;10.41;69.77;95456.47;5071059;28;20536;-67
2023/04/29 00:04:50;;;;;;;0.40;0.30;;;;;;;10.22;70.63;95455.38;5071602;28;20534;-67
2023/04/29 00:07:19;;;;;;;0.40;0.40;;;;;;;10.28;70.65;95456.16;5071677;28;20521;-67
2023/04/29 00:09:47;;;;;;;0.70;0.70;;;;;;;10.37;70.13;95451.97;5071925;28;20445;-67
2023/04/29 00:12:16;;;;;;;0.40;0.40;;;;;;;10.31;69.97;95451.16;5071471;28;20528;-67
2023/04/29 00:14:44;;;;;;;0.50;0.40;;;;;;;10.42;69.68;95450.13;5071389;28;20873;-67
2023/04/29 00:17:15;;;;;;;0.43;0.40;;;;;;;10.53;68.11;95456.19;5070951;28;20433;-67
2023/04/29 00:19:44;;;;;;;0.40;0.30;;;;;;;10.48;67.83;95449.03;5071912;28;20865;-67
2023/04/29 00:22:12;;;;;;;0.37;0.30;;;;;;;10.08;69.09;95451.63;5071498;28;20465;-67
2023/04/29 00:24:40;;;;;;;0.40;0.30;;;;;;;9.91;70.12;95448.41;5071431;28;20508;-67
2023/04/29 00:27:10;;;;;;;0.30;0.30;;;;;;;10.18;69.00;95446.38;5071305;28;20843;-67
2023/04/29 00:29:39;;;;;;;0.30;0.20;;;;;;;9.95;70.24;95449.47;5071229;28;20448;-67
2023/04/29 00:32:07;;;;;;;0.37;0.30;;;;;;;9.68;70.33;95449.69;5071002;28;20441;-68
2023/04/29 00:34:37;;;;;;;0.60;0.60;;;;;;;9.50;71.05;95428.97;5071707;28;20788;-66
2023/04/29 00:37:05;;;;;;;0.40;0.30;;;;;;;9.97;69.94;95448.16;5045526;28;20933;-68
2023/04/29 00:39:34;;;;;;;0.40;0.30;;;;;;;10.13;68.36;95436.56;5071382;28;20429;-67
2023/04/29 00:42:03;;;;;;;0.30;0.20;;;;;;;10.23;68.80;95450.88;5071437;28;20484;-68
2023/04/29 00:44:31;;;;;;;0.60;0.60;;;;;;;10.06;69.24;95456.38;5071061;28;20474;-68
2023/04/29 00:46:59;;;;;;;0.73;0.47;;;;;;;10.13;69.16;95449.00;5070973;28;20509;-68
2023/04/29 00:49:28;;;;;;;0.40;0.27;;;;;;;10.19;68.35;95440.03;5071020;28;20473;-67
2023/04/29 00:51:59;;;;;;;0.30;0.20;;;;;;;10.22;68.28;95442.13;5070979;28;20447;-68
2023/04/29 00:54:27;;;;;;;0.30;0.20;;;;;;;10.18;69.41;95433.94;5070705;28;20445;-67
2023/04/29 00:56:58;;;;;;;0.40;0.30;;;;;;;10.14;69.04;95438.13;5071398;28;20457;-68
2023/04/29 00:59:31;;;;;;;0.40;0.30;;;;;;;10.17;69.10;95439.47;5070815;28;20434;-68
2023/04/29 01:02:01;;;;;;;0.30;0.20;;;;;;;10.12;69.56;95440.25;5071021;28;20471;-68
2023/04/29 01:04:29;;;;;;;0.30;0.20;;;;;;;9.92;69.59;95412.91;5070984;28;20457;-68
2023/04/29 01:07:07;;;;;;;0.40;0.30;;;;;;;10.03;68.93;95428.59;5071202;28;20479;-68
2023/04/29 01:09:50;;;;;;;0.33;0.23;;;;;;;10.16;68.83;95441.34;5071120;28;20452;-68
2023/04/29 01:12:26;;;;;;;0.50;0.40;;;;;;;10.12;69.40;95442.91;5070844;28;20430;-68
2023/04/29 01:15:04;;;;;;;0.67;0.30;;;;;;;10.08;69.41;95444.47;5070940;28;20973;-68
2023/04/29 01:17:41;;;;;;;0.30;0.20;;;;;;;9.96;69.21;95432.53;5070718;28;20996;-68
2023/04/29 01:20:11;;;;;;;0.50;0.40;;;;;;;9.87;70.27;95447.31;5073909;28;20437;-68
2023/04/29 01:22:40;;;;;;;0.40;0.40;;;;;;;9.51;72.51;95441.16;5074429;28;20502;-68
2023/04/29 01:25:10;;;;;;;0.30;0.20;;;;;;;9.79;72.08;95445.97;5059340;28;20819;-68
2023/04/29 01:27:47;;;;;;;0.93;0.30;;;;;;;9.86;71.34;95437.81;5063561;28;20525;-68
2023/04/29 01:30:28;;;;;;;0.30;0.30;;;;;;;9.89;70.81;95442.59;5074451;28;20448;-68
2023/04/29 01:33:03;;;;;;;0.87;0.87;;;;;;;9.91;70.49;95445.78;5074649;28;20804;-69
2023/04/29 01:35:45;;;;;;;0.40;0.20;;;;;;;9.82;70.36;95457.91;5074703;28;20437;-69
2023/04/29 01:38:23;;;;;;;0.30;0.20;;;;;;;9.83;70.43;95455.00;5074287;28;20883;-68
2023/04/29 01:41:00;;;;;;;0.30;0.20;;;;;;;9.73;70.18;95457.63;5074326;28;20443;-68
2023/04/29 01:43:31;;;;;;;0.50;0.30;;;;;;;9.64;69.88;95432.72;5074271;28;20441;-67
2023/04/29 01:45:59;;;;;;;0.53;0.53;;;;;;;9.75;70.09;95455.50;5073290;28;20503;-67
2023/04/29 01:48:28;;;;;;;0.30;0.20;;;;;;;9.72;69.99;95450.72;5047838;28;20576;-67
2023/04/29 01:50:57;;;;;;;0.77;0.30;;;;;;;9.23;72.00;95449.50;5074048;28;20997;-67
2023/04/29 01:53:25;;;;;;;0.63;0.40;;;;;;;9.26;74.14;95452.41;5074510;28;20445;-66
2023/04/29 01:55:54;;;;;;;0.30;0.30;;;;;;;9.63;73.98;95449.66;5074160;28;20470;-66
2023/04/29 01:58:23;;;;;;;0.30;0.20;;;;;;;9.69;71.83;95458.41;5074581;28;20460;-66
2023/04/29 02:00:51;;;;;;;0.50;0.40;;;;;;;9.63;72.75;95460.25;5074247;28;20437;-66
2023/04/29 02:03:19;;;;;;;0.47;0.30;;;;;;;9.84;73.47;95459.22;5074465;28;20452;-66
2023/04/29 02:05:49;;;;;;;0.40;0.27;;;;;;;9.49;73.27;95414.94;5073943;28;20445;-66
2023/04/29 02:08:17;;;;;;;0.30;0.20;;;;;;;9.66;71.92;95443.84;5073861;28;21086;-65
2023/04/29 02:10:54;;;;;;;0.40;0.30;;;;;;;9.54;71.95;95451.19;5073883;28;20441;-65
2023/04/29 02:13:23;;;;;;;0.30;0.20;;;;;;;9.62;72.37;95450.69;5073655;28;20512;-66
2023/04/29 02:15:51;;;;;;;0.30;0.20;;;;;;;9.60;72.20;95458.09;5073200;28;20506;-65
2023/04/29 02:18:19;;;;;;;0.50;0.30;;;;;;;9.72;71.29;95453.38;5073815;28;20429;-66
2023/04/29 02:20:49;;;;;;;1.03;0.93;;;;;;;9.84;71.60;95453.16;5072777;28;20440;-65
2023/04/29 02:23:17;;;;;;;0.40;0.30;;;;;;;9.28;75.11;95445.03;5073980;28;20875;-66
2023/04/29 02:25:45;;;;;;;0.50;0.30;;;;;;;9.46;73.21;95449.84;5046814;28;20539;-66
2023/04/29 02:28:16;;;;;;;7.50;0.47;;;;;;;9.73;71.17;95446.25;5072944;28;20509;-65
2023/04/29 02:30:44;;;;;;;0.70;0.60;;;;;;;9.74;71.85;95450.50;5073218;28;20445;-66
2023/04/29 02:33:13;;;;;;;0.30;0.20;;;;;;;9.36;74.16;95451.69;5073113;28;20469;-66
2023/04/29 02:35:41;;;;;;;0.40;0.30;;;;;;;9.54;72.98;95449.34;5073429;28;20437;-67
2023/04/29 02:38:10;;;;;;;0.40;0.30;;;;;;;9.67;71.91;95449.91;5073139;28;20958;-66
2023/04/29 02:40:42;;;;;;;0.30;0.20;;;;;;;9.51;73.25;95451.72;5073594;28;20466;-66
2023/04/29 02:43:10;;;;;;;0.30;0.30;;;;;;;9.31;74.60;95447.13;5072988;28;20528;-66
2023/04/29 02:45:40;;;;;;;0.40;0.30;;;;;;;9.46;73.74;95452.50;5072840;28;20438;-66
2023/04/29 02:48:08;;;;;;;0.33;0.23;;;;;;;9.59;73.66;95446.72;5072788;28;20527;-66
2023/04/29 02:50:37;;;;;;;0.40;0.30;;;;;;;9.59;72.44;95441.44;5073042;28;20442;-66
2023/04/29 02:53:05;;;;;;;0.37;0.30;;;;;;;9.31;74.70;95446.34;5072996;28;20836;-66
2023/04/29 02:55:33;;;;;;;0.60;0.60;;;;;;;9.32;74.53;95442.66;5072753;28;20524;-66
2023/04/29 02:58:02;;;;;;;0.60;0.60;;;;;;;9.63;73.33;95438.28;5073291;28;20436;-66
2023/04/29 03:00:30;;;;;;;0.90;0.33;;;;;;;9.66;72.83;95440.41;5072965;28;20444;-66
2023/04/29 03:03:00;;;;;;;0.30;0.20;;;;;;;9.46;74.53;95441.91;5071797;28;20455;-66
2023/04/29 03:05:29;;;;;;;0.53;0.53;;;;;;;9.51;74.32;95447.22;5072513;28;20434;-66
2023/04/29 03:07:57;;;;;;;0.40;0.40;;;;;;;9.62;73.99;95439.31;5072666;28;20504;-65
2023/04/29 03:10:25;;;;;;;0.40;0.30;;;;;;;9.76;74.02;95438.59;5072488;28;20430;-65
2023/04/29 03:12:53;;;;;;;0.40;0.37;;;;;;;9.71;74.25;95445.72;5072621;28;20433;-65
2023/04/29 03:15:22;;;;;;;0.40;0.20;;;;;;;9.59;74.34;95438.78;5071972;28;20806;-65
2023/04/29 03:17:50;;;;;;;0.70;0.70;;;;;;;9.74;74.30;95439.91;5072733;28;20803;-65
2023/04/29 03:20:20;;;;;;;0.40;0.40;;;;;;;9.63;74.78;95435.63;5071752;28;20433;-65
2023/04/29 03:22:49;;;;;;;0.47;0.30;;;;;;;9.80;73.43;95434.34;5072172;28;20437;-65
2023/04/29 03:25:17;;;;;;;4.73;0.40;;;;;;;9.69;74.71;95438.00;5071788;28;21227;-65
2023/04/29 03:27:46;;;;;;;0.40;0.30;;;;;;;9.59;75.55;95438.78;5072408;28;20480;-64
2023/04/29 03:30:14;;;;;;;0.33;0.27;;;;;;;9.57;75.03;95440.09;5071870;28;20444;-63
2023/04/29 03:32:43;;;;;;;0.30;0.20;;;;;;;9.58;74.89;95447.00;5072586;28;20503;-64
2023/04/29 03:35:11;;;;;;;0.50;0.40;;;;;;;9.58;74.96;95423.19;5071816;28;20954;-64
2023/04/29 03:37:44;;;;;;;0.50;0.30;;;;;;;9.16;77.62;95447.06;5072328;28;20444;-64
2023/04/29 03:40:13;;;;;;;5.60;0.60;;;;;;;9.23;80.00;95455.59;5071926;28;20440;-64
2023/04/29 03:42:42;;;;;;;0.40;0.30;;;;;;;8.85;81.69;95459.28;5071250;28;20536;-64
2023/04/29 03:45:13;;;;;;;0.50;0.40;;;;;;;9.00;81.44;95450.69;5071876;28;20445;-65
2023/04/29 03:47:41;;;;;;;0.40;0.30;;;;;;;8.70;83.69;95455.78;5071425;28;20438;-64
2023/04/29 03:50:10;;;;;;;1.03;0.93;;;;;;;8.40;85.96;95461.59;5072189;28;20472;-64
2023/04/29 03:52:39;;;;;;;0.60;0.50;;;;;;;8.10;88.55;95461.31;5071672;28;20980;-64
2023/04/29 03:55:10;;;;;;;1.37;1.27;;;;;;;8.29;89.76;95463.38;5071791;28;20945;-62
2023/04/29 03:57:38;;;;;;;0.43;0.30;;;;;;;8.29;91.81;95466.03;5071901;28;20527;-63
2023/04/29 04:00:10;;;;;;;0.93;0.93;;;;;;;8.18;95.06;95466.13;5071748;28;20491;-63
2023/04/29 04:02:38;;;;;;;0.40;0.30;;;;;;;8.00;94.02;95379.38;5071235;28;20521;-61
2023/04/29 04:05:08;;;;;;;0.50;0.50;;;;;;;8.88;89.85;95474.66;5071582;28;20477;-62
2023/04/29 04:07:36;;;;;;;0.60;0.60;;;;;;;8.95;89.12;95454.06;5070958;28;20819;-62
2023/04/29 04:10:05;;;;;;;0.40;0.40;;;;;;;8.95;92.69;95490.31;5072018;28;20477;-63
2023/04/29 04:12:35;;;;;;;1.23;0.40;;;;;;;8.89;95.39;95478.91;5071550;28;20559;-61
2023/04/29 04:15:03;;;;;;;0.40;0.30;;;;;;;9.13;91.99;95463.47;5071744;28;20468;-61
2023/04/29 04:17:32;;;;;;;0.30;0.30;;;;;;;8.84;92.79;95470.13;5072165;28;20438;-61
2023/04/29 04:20:00;;;;;;;0.50;0.40;;;;;;;8.91;91.77;95473.34;5072262;28;20533;-61
2023/04/29 04:22:28;;;;;;;0.40;0.40;;;;;;;8.86;91.54;95429.19;5071219;28;20441;-61
2023/04/29 04:24:57;;;;;;;0.60;0.60;;;;;;;9.48;88.18;95465.47;5071502;28;20487;-61
2023/04/29 04:27:25;;;;;;;1.03;0.67;;;;;;;9.30;90.04;95476.50;5071631;28;20473;-61
2023/04/29 04:29:55;;;;;;;3.00;1.43;;;;;;;9.11;86.00;95365.06;5071384;28;20477;-60
2023/04/29 04:32:24;;;;;;;2.70;1.23;;;;;;;9.73;86.42;95481.44;5071334;28;20530;-61
2023/04/29 04:34:52;;;;;;;0.67;0.60;;;;;;;9.56;87.78;95475.56;5070918;28;20935;-61
2023/04/29 04:37:20;;;;;;;0.40;0.30;;;;;;;9.38;88.34;95473.38;5071447;28;20442;-62
2023/04/29 04:39:48;;;;;;;0.43;0.43;;;;;;;9.90;86.43;95481.22;5071206;28;20449;-62
2023/04/29 04:42:17;;;;;;;1.33;0.63;;;;;;;9.99;85.06;95474.38;5071396;28;20498;-63
2023/04/29 04:44:45;;;;;;;0.30;0.30;;;;;;;10.51;81.95;95464.41;5070500;28;20982;-62
2023/04/29 04:47:15;;;;;;;0.80;0.80;;;;;;;9.81;84.00;95462.44;5071198;28;20469;-62
2023/04/29 04:49:43;;;;;;;2.83;0.97;;;;;;;9.53;86.56;95452.25;5071004;28;21069;-62
2023/04/29 04:52:12;;;;;;;0.50;0.50;;;;;;;9.71;88.65;95458.94;5071138;28;20453;-63
2023/04/29 04:54:40;;;;;;;0.60;0.50;;;;;;;9.97;88.43;95468.53;5074709;28;20813;-62
2023/04/29 04:57:08;;;;;;;0.40;0.40;;;;;;;10.12;85.54;95463.28;5075007;28;20455;-62
2023/04/29 04:59:37;;;;;;;0.70;0.60;;;;;;;10.50;82.71;95467.34;5074942;28;20513;-62
2023/04/29 05:02:05;;;;;;;1.20;1.10;;;;;;;10.55;80.56;95467.34;5074975;28;20503;-61
2023/04/29 05:04:35;;;;;;;0.40;0.40;;;;;;;9.90;83.10;95442.31;5074941;28;20445;-61
2023/04/29 05:07:03;;;;;;;0.50;0.40;;;;;;;10.14;83.16;95461.22;5075270;28;20532;-61
2023/04/29 05:09:32;;;;;;;0.57;0.43;;;;;;;10.65;82.33;95456.75;5075342;28;20509;-61
2023/04/29 05:12:00;;;;;;;0.40;0.33;;;;;;;10.66;79.97;95463.63;5074905;28;20473;-60
2023/04/29 05:14:29;;;;;;;2.83;0.40;;;;;;;11.10;78.70;95458.53;5074963;28;20525;-59
2023/04/29 05:16:59;;;;;;;0.60;0.50;;;;;;;10.97;77.37;95388.28;5074593;28;20437;-60
2023/04/29 05:19:27;;;;;;;0.70;0.40;;;;;;;11.87;75.17;95465.97;5074717;28;20445;-60
2023/04/29 05:21:57;;;;;;;0.47;0.37;;;;;;;12.03;73.84;95462.19;5074572;28;20473;-60
2023/04/29 05:24:25;;;;;;;1.90;0.83;;;;;;;10.95;73.96;95416.13;5074776;28;20438;-60
2023/04/29 05:26:53;;;;;;;6.53;4.10;;;;;;;10.94;75.03;95449.81;5074046;28;20441;-60
2023/04/29 05:29:22;;;;;;;0.90;0.90;;;;;;;10.93;74.58;95456.16;5074432;28;20476;-60
2023/04/29 05:31:51;;;;;;;1.20;0.87;;;;;;;11.23;73.67;95469.38;5074082;28;20445;-60
2023/04/29 05:34:19;;;;;;;0.60;0.60;;;;;;;11.37;73.95;95475.72;5073887;28;20443;-60
2023/04/29 05:36:47;;;;;;;0.50;0.30;;;;;;;11.58;72.95;95468.47;5074182;28;20524;-61
2023/04/29 05:39:17;;;;;;;0.63;0.60;;;;;;;10.94;74.83;95441.84;5074241;28;20441;-60
2023/04/29 05:41:46;;;;;;;0.67;0.67;;;;;;;10.71;76.87;95461.75;5074073;28;20461;-60
2023/04/29 05:44:14;;;;;;;0.90;0.87;;;;;;;11.20;77.07;95455.84;5062868;28;20473;-61
2023/04/29 05:46:42;;;;;;;0.40;0.33;;;;;;;11.52;75.43;95450.19;5073228;28;20448;-60
2023/04/29 05:49:10;;;;;;;0.50;0.50;;;;;;;10.78;76.86;95456.97;5074029;28;20465;-60
2023/04/29 05:51:39;;;;;;;0.40;0.30;;;;;;;11.31;76.23;95460.84;5073434;28;20430;-60
2023/04/29 05:54:07;;;;;;;1.37;0.80;;;;;;;10.78;76.61;95456.19;5073895;28;20474;-61
2023/04/29 05:56:37;;;;;;;0.83;0.77;;;;;;;10.48;79.06;95462.28;5073970;28;20532;-61
2023/04/29 05:59:05;;;;;;;1.33;1.17;;;;;;;10.56;79.89;95461.75;5072593;28;20904;-61
2023/04/29 06:01:33;;;;;;;0.40;0.40;;;;;;;10.23;82.47;95459.63;5073963;28;20615;-61
2023/04/29 06:04:02;;;;;;;0.40;0.30;;;;;;;10.23;82.21;95467.56;5073281;28;20441;-61
2023/04/29 06:06:30;;;;;;;0.40;0.40;;;;;;;9.95;83.46;95463.50;5073369;28;20437;-61
2023/04/29 06:09:00;;;;;;;0.60;0.40;;;;;;;10.01;82.62;95441.28;5063225;28;20445;-61
2023/04/29 06:11:31;;;;;;;0.50;0.40;;;;;;;10.71;81.04;95456.47;5073954;28;20437;-61
2023/04/29 06:14:00;;;;;;;0.63;0.50;;;;;;;10.99;78.73;95436.53;5073727;28;20699;-61
2023/04/29 06:16:29;;;;;;;3.37;0.70;;;;;;;11.36;76.49;95450.22;5073810;28;20438;-62
2023/04/29 06:18:57;;;;;;;1.47;1.33;;;;;;;10.97;77.33;95449.28;5073246;28;20943;-61
2023/04/29 06:21:26;;;;;;;1.50;0.70;;;;;;;10.92;77.53;95449.28;5073740;28;20876;-61
2023/04/29 06:23:55;;;;;;;0.60;0.60;;;;;;;11.74;75.97;95442.69;5072917;28;20437;-62
2023/04/29 06:26:23;;;;;;;0.60;0.60;;;;;;;11.68;74.98;95428.66;5073033;28;20847;-62
2023/04/29 06:28:53;;;;;;;0.60;0.60;;;;;;;12.06;73.92;95424.47;5073646;28;20506;-62
2023/04/29 06:31:22;;;;;;;1.17;1.00;;;;;;;12.30;72.38;95433.31;5072979;28;20564;-61
2023/04/29 06:33:51;;;;;;;0.50;0.40;;;;;;;13.00;71.98;95434.59;5072903;28;20926;-61
2023/04/29 06:36:19;;;;;;;0.50;0.47;;;;;;;13.44;70.10;95434.41;5073402;28;20448;-61
2023/04/29 06:38:47;;;;;;;0.50;0.40;;;;;;;13.86;66.41;95415.00;5073435;28;20528;-61
2023/04/29 06:41:16;;;;;;;1.13;1.07;;;;;;;14.02;65.04;95424.34;5073115;28;20438;-61
2023/04/29 06:43:44;;;;;;;0.70;0.60;;;;;;;13.10;66.07;95418.56;5073079;28;20437;-62
2023/04/29 06:46:16;;;;;;;2.20;0.87;;;;;;;13.16;66.02;95419.28;5072683;28;20438;-62
2023/04/29 06:48:45;;;;;;;0.50;0.50;;;;;;;13.12;65.96;95415.63;5072556;28;20947;-62
2023/04/29 06:51:14;;;;;;;0.50;0.50;;;;;;;13.37;64.58;95423.31;5072171;28;20577;-62
2023/04/29 06:53:43;;;;;;;0.50;0.50;;;;;;;14.15;64.27;95420.19;5073043;28;20525;-63
2023/04/29 06:56:11;;;;;;;0.50;0.50;;;;;;;14.61;62.38;95399.78;5072735;28;20440;-63
2023/04/29 06:58:39;;;;;;;0.40;0.30;;;;;;;14.56;62.21;95407.84;5072799;28;20965;-63
2023/04/29 07:01:08;;;;;;;0.30;0.30;;;;;;;14.73;61.80;95415.31;5072551;28;20445;-63
2023/04/29 07:03:36;;;;;;;0.77;0.43;;;;;;;14.24;62.36;95403.28;5073280;28;20448;-63
2023/04/29 07:06:06;;;;;;;0.47;0.30;;;;;;;14.06;62.38;95406.72;5072604;28;20433;-63
2023/04/29 07:08:34;;;;;;;0.33;0.27;;;;;;;13.95;63.83;95400.75;5072633;28;20521;-64
2023/04/29 07:11:03;;;;;;;0.50;0.40;;;;;;;14.65;61.67;95395.44;5072628;28;20556;-63
2023/04/29 07:13:31;;;;;;;0.60;0.43;;;;;;;14.97;61.37;95402.63;5072804;28;20861;-63
2023/04/29 07:15:59;;;;;;;0.50;0.50;;;;;;;14.83;59.51;95397.25;5072415;28;20487;-63
2023/04/29 07:18:28;;;;;;;0.40;0.33;;;;;;;14.87;60.31;95387.59;5072020;28;20498;-63
2023/04/29 07:21:01;;;;;;;0.40;0.40;;;;;;;14.06;61.52;95393.41;5072588;28;20988;-63
2023/04/29 07:23:30;;;;;;;1.60;0.73;;;;;;;14.71;61.10;95388.13;5072746;28;20525;-63
2023/04/29 07:25:59;;;;;;;0.50;0.47;;;;;;;15.60;61.42;95378.75;5072415;28;21005;-63
2023/04/29 07:28:27;;;;;;;0.60;0.60;;;;;;;16.00;57.90;95377.88;5071908;28;20442;-62
2023/04/29 07:30:55;;;;;;;1.13;1.13;;;;;;;16.52;58.00;95363.81;5072717;28;20846;-63
2023/04/29 07:33:24;;;;;;;0.67;0.67;;;;;;;15.85;57.48;95372.84;5071738;28;20513;-63
2023/04/29 07:35:52;;;;;;;0.70;0.70;;;;;;;16.18;55.74;95368.09;5072436;28;21024;-62
2023/04/29 07:38:20;;;;;;;1.40;1.40;;;;;;;16.57;56.44;95370.16;5071844;28;20445;-63
2023/04/29 07:40:50;;;;;;;0.70;0.70;;;;;;;16.76;53.95;95358.16;5072082;28;20814;-61
2023/04/29 07:43:19;;;;;;;0.97;0.87;;;;;;;16.90;54.76;95353.50;5071739;28;20532;-60
2023/04/29 07:45:47;;;;;;;0.53;0.53;;;;;;;17.76;52.65;95351.13;5072398;28;20524;-60
2023/04/29 07:48:15;;;;;;;1.17;1.17;;;;;;;17.31;52.98;95339.78;5072038;28;20441;-61
2023/04/29 07:50:44;;;;;;;0.60;0.60;;;;;;;17.52;51.77;95343.53;5071621;28;20842;-62
2023/04/29 07:53:12;;;;;;;0.40;0.30;;;;;;;18.37;52.20;95329.38;5072314;28;20442;-61
2023/04/29 07:55:40;;;;;;;1.33;0.87;;;;;;;18.50;50.64;95343.75;5071852;28;20437;-62
2023/04/29 07:58:10;;;;;;;0.50;0.30;;;;;;;18.45;52.05;95294.78;5072158;28;20826;-62
2023/04/29 08:00:38;;;;;;;3.00;0.47;;;;;;;18.65;50.11;95337.88;5071688;28;20434;-62
2023/04/29 08:03:07;;;;;;;0.70;0.67;;;;;;;18.80;50.23;95337.38;5071122;28;20473;-63
2023/04/29 08:05:35;;;;;;;0.60;0.50;;;;;;;19.15;47.43;95346.09;5070940;28;20532;-63
2023/04/29 08:08:04;;;;;;;1.57;0.57;;;;;;;19.82;46.03;95340.72;5070656;28;20469;-63
2023/04/29 08:10:32;;;;;;;0.60;0.60;;;;;;;19.50;48.12;95341.41;5070748;28;20469;-63
2023/04/29 08:13:01;;;;;;;1.00;1.00;;;;;;;19.77;46.27;95334.75;5070955;28;20473;-63
2023/04/29 08:15:30;;;;;;;0.40;0.30;;;;;;;20.05;46.79;95331.25;5071446;28;20452;-63
2023/04/29 08:17:59;;;;;;;0.57;0.57;;;;;;;19.80;47.73;95334.91;5071655;28;20447;-63
2023/04/29 08:20:27;;;;;;;0.63;0.60;;;;;;;18.73;47.67;95345.13;5071442;28;20520;-64
2023/04/29 08:22:58;;;;;;;0.50;0.40;;;;;;;19.66;45.93;95334.34;5070922;28;20945;-65
2023/04/29 08:25:27;;;;;;;9.43;1.00;;;;;;;20.05;47.76;95330.44;5066786;28;20481;-64
2023/04/29 08:27:56;;;;;;;0.47;0.40;;;;;;;20.27;45.57;95330.91;5062588;28;20445;-66
2023/04/29 08:30:24;;;;;;;0.83;0.53;;;;;;;19.80;47.67;95324.13;5071282;28;20422;-67
2023/04/29 08:32:54;;;;;;;0.93;0.93;;;;;;;19.53;47.59;95319.25;5071443;28;20468;-68
2023/04/29 08:35:23;;;;;;;0.60;0.40;;;;;;;19.53;46.01;95311.19;5071559;28;20429;-70
2023/04/29 08:37:53;;;;;;;2.00;0.60;;;;;;;20.12;45.89;95315.34;5071600;28;20437;-69
2023/04/29 08:40:21;;;;;;;4.83;0.40;;;;;;;20.89;44.43;95308.47;5046059;28;20434;-71
2023/04/29 08:42:50;;;;;;;0.90;0.63;;;;;;;21.90;42.23;95301.31;5071294;28;20441;-74
2023/04/29 08:45:23;;;;;;;1.00;1.00;;;;;;;20.12;43.86;95309.97;5074162;28;20449;-74
2023/04/29 08:47:55;;;;;;;0.40;0.30;;;;;;;21.20;43.49;95299.88;5073377;28;20520;-76
2023/04/29 08:50:24;;;;;;;0.57;0.57;;;;;;;19.62;44.46;95301.94;5072797;28;20441;-74
2023/04/29 08:52:52;;;;;;;0.40;0.30;;;;;;;20.78;45.53;95288.44;5072062;28;20523;-73
2023/04/29 08:55:21;;;;;;;0.40;0.30;;;;;;;21.12;43.33;95282.69;5071750;28;20437;-74
2023/04/29 08:57:50;;;;;;;1.10;1.10;;;;;;;21.35;42.68;95275.72;5071204;28;20442;-77
2023/04/29 09:00:19;;;;;;;0.63;0.50;;;;;;;21.78;44.43;95266.22;5071619;28;20465;-76
2023/04/29 09:02:51;;;;;;;0.40;0.30;;;;;;;20.83;43.54;95253.22;5071366;28;20899;-75
2023/04/29 09:05:21;;;;;;;0.40;0.30;;;;;;;21.13;43.83;95256.50;5071551;28;20470;-76
2023/04/29 09:07:51;;;;;;;0.43;0.30;;;;;;;21.55;41.75;95273.25;5071415;28;20438;-76
2023/04/29 09:10:20;;;;;;;0.60;0.60;;;;;;;21.14;39.09;95250.81;5071219;28;20452;-73
2023/04/29 09:12:48;;;;;;;0.60;0.60;;;;;;;21.19;37.41;95252.47;5071447;28;20912;-75
2023/04/29 09:15:36;;;;;;;1.23;0.67;;;;;;;22.42;37.16;95239.91;5071347;28;20510;-76
2023/04/29 09:21:38;;;;;;;0.40;0.30;;;;;;;22.80;36.70;95227.78;5057945;28;20960;-75
2023/04/29 09:24:06;;;;;;;0.83;0.60;;;;;;;22.46;38.36;95229.22;5071521;28;20472;-75
2023/04/29 09:26:41;;;;;;;0.50;0.40;;;;;;;22.69;38.38;95224.84;5070876;28;20553;-72
2023/04/29 09:29:12;;;;;;;0.70;0.40;;;;;;;22.93;38.31;95210.34;5071034;28;20437;-72
2023/04/29 09:31:42;;;;;;;0.40;0.30;;;;;;;22.08;39.48;95219.72;5070754;28;20589;-71
2023/04/29 09:34:11;;;;;;;0.50;0.40;;;;;;;23.29;38.98;95207.34;5070929;28;20437;-70
2023/04/29 09:36:44;;;;;;;0.50;0.40;;;;;;;23.49;37.51;95210.91;5070830;28;20433;-71
2023/04/29 09:39:15;;;;;;;0.50;0.40;;;;;;;23.69;37.58;95190.84;5070970;28;20997;-73
2023/04/29 09:41:59;;;;;;;0.50;0.50;;;;;;;23.76;36.81;95186.38;5074476;28;20433;-75
2023/04/29 09:44:29;;;;;;;0.70;0.63;;;;;;;23.30;37.81;95196.16;5074479;28;20520;-71
2023/04/29 09:47:03;;;;;;;0.50;0.50;;;;;;;22.91;38.69;95135.03;5074754;28;20499;-71
2023/04/29 09:49:34;;;;;;;0.40;0.30;;;;;;;22.45;37.68;95182.50;5074380;28;20475;-74
2023/04/29 09:52:06;;;;;;;0.40;0.30;;;;;;;23.54;37.63;95172.75;5074105;28;20476;-74
2023/04/29 09:54:37;;;;;;;0.57;0.57;;;;;;;24.82;35.47;95165.94;5073995;28;20442;-69
2023/04/29 09:57:06;;;;;;;0.60;0.60;;;;;;;23.64;34.92;95156.75;5073755;28;20433;-70
2023/04/29 09:59:37;;;;;;;0.40;0.30;;;;;;;24.14;36.70;95153.09;5073787;28;20491;-69
2023/04/29 10:02:10;;;;;;;1.27;0.47;;;;;;;24.62;34.04;95143.50;5074143;28;20465;-71
2023/04/29 10:04:42;;;;;;;0.40;0.30;;;;;;;25.48;34.66;95124.66;5073882;28;20438;-68
2023/04/29 10:07:15;;;;;;;0.50;0.33;;;;;;;24.88;34.34;95130.00;5073572;28;20447;-66
2023/04/29 10:09:46;;;;;;;0.50;0.50;;;;;;;24.37;34.56;95123.31;5073770;28;20529;-67
2023/04/29 10:12:16;;;;;;;0.40;0.30;;;;;;;23.57;35.62;95117.94;5073608;28;20516;-69
2023/04/29 10:14:54;;;;;;;1.80;0.70;;;;;;;24.46;35.36;95094.09;5074072;28;20518;-72
2023/04/29 10:17:33;;;;;;;0.40;0.40;;;;;;;23.57;35.11;95080.06;5073299;28;20521;-70
2023/04/29 10:20:06;;;;;;;0.63;0.63;;;;;;;25.17;34.21;95101.38;5073947;28;21014;-70
2023/04/29 10:22:42;;;;;;;0.70;0.60;;;;;;;24.10;35.61;95094.59;5048564;28;20800;-71
2023/04/29 10:25:13;;;;;;;0.77;0.40;;;;;;;25.83;34.83;95103.41;5073736;28;20473;-72
2023/04/29 10:27:43;;;;;;;0.70;0.47;;;;;;;25.36;34.47;95089.59;5073433;28;20441;-72
2023/04/29 10:30:13;;;;;;;0.60;0.60;;;;;;;25.86;34.10;95089.06;5073481;28;21012;-73
2023/04/29 10:32:42;;;;;;;0.40;0.30;;;;;;;26.27;34.94;95082.53;5073412;28;20473;-74
2023/04/29 10:35:19;;;;;;;0.30;0.20;;;;;;;26.89;33.01;95078.00;5073804;28;20527;-74
2023/04/29 10:37:49;;;;;;;0.40;0.30;;;;;;;27.40;32.00;95064.31;5073712;28;20448;-74
2023/04/29 10:40:21;;;;;;;1.27;0.60;;;;;;;25.09;34.05;95062.53;5073036;28;20437;-73
2023/04/29 10:42:51;;;;;;;0.87;0.70;;;;;;;25.66;33.44;95068.66;5073329;28;20449;-72
2023/04/29 10:45:25;;;;;;;0.50;0.40;;;;;;;26.73;32.62;95057.66;5073504;28;20488;-72
2023/04/29 10:48:14;;;;;;;0.73;0.60;;;;;;;27.19;33.93;95052.53;5073257;28;20875;-73
2023/04/29 10:51:03;;;;;;;0.40;0.30;;;;;;;27.95;32.47;95050.50;5073359;28;20989;-72
2023/04/29 10:53:33;;;;;;;17.90;1.43;;;;;;;26.00;33.43;95053.13;5073157;28;20531;-72
2023/04/29 10:56:08;;;;;;;0.67;0.37;;;;;;;26.48;33.81;95052.81;5072426;28;20932;-73
2023/04/29 10:58:38;;;;;;;0.40;0.40;;;;;;;27.83;31.37;95048.16;5072883;28;20891;-73
2023/04/29 11:01:10;;;;;;;0.60;0.60;;;;;;;28.32;31.35;95040.84;5074929;28;20429;-74
2023/04/29 11:03:57;;;;;;;0.70;0.50;;;;;;;28.09;31.33;95036.91;5074023;28;20438;-73
2023/04/29 11:06:39;;;;;;;0.63;0.57;;;;;;;28.10;31.05;95042.00;5048993;28;20532;-73
2023/04/29 11:09:12;;;;;;;0.50;0.40;;;;;;;28.49;29.89;95042.00;5074737;28;20501;-73
2023/04/29 11:11:45;;;;;;;1.20;1.20;;;;;;;27.50;29.09;95002.94;5072866;28;20469;-74
2023/04/29 11:14:15;;;;;;;0.40;0.40;;;;;;;27.17;29.37;95025.72;5072822;28;20488;-74
2023/04/29 11:16:52;;;;;;;0.50;0.50;;;;;;;28.06;29.20;95027.56;5072798;28;20480;-63
2023/04/29 11:19:21;;;;;;;0.70;0.40;;;;;;;28.88;29.58;95023.69;5042351;28;20446;-75
2023/04/29 11:22:03;;;;;;;0.40;0.30;;;;;;;29.23;28.85;95017.38;5066407;28;20442;-74
2023/04/29 11:24:34;;;;;;;0.60;0.43;;;;;;;28.57;28.72;95007.34;5073497;28;20444;-74
2023/04/29 11:27:04;;;;;;;0.40;0.37;;;;;;;28.45;29.32;95008.53;5080099;28;20956;-74
2023/04/29 11:29:33;;;;;;;0.60;0.40;;;;;;;28.67;28.49;95007.34;5079630;28;20788;-74
2023/04/29 11:32:02;;;;;;;0.40;0.40;;;;;;;28.05;28.71;95004.25;5078582;28;20475;-74
2023/04/29 11:34:30;;;;;;;0.87;0.53;;;;;;;26.75;30.90;95009.91;5073343;28;20488;-74
2023/04/29 11:36:59;;;;;;;0.40;0.30;;;;;;;26.53;30.49;95010.13;5072380;28;20445;-74
2023/04/29 11:39:27;;;;;;;0.40;0.30;;;;;;;27.90;29.42;95001.84;5072017;28;20438;-72
2023/04/29 11:42:05;;;;;;;0.60;0.47;;;;;;;26.84;30.96;95009.59;5071900;28;20441;-73
2023/04/29 11:44:36;;;;;;;0.80;0.67;;;;;;;27.04;30.67;94994.56;5071814;28;20528;-72
2023/04/29 11:47:05;;;;;;;0.43;0.40;;;;;;;27.49;29.50;94939.53;5072202;28;20433;-74
2023/04/29 11:49:34;;;;;;;0.43;0.43;;;;;;;27.73;29.22;94946.16;5071595;28;20966;-74
2023/04/29 11:52:02;;;;;;;0.40;0.40;;;;;;;27.15;29.62;94989.16;5072110;28;20894;-73
2023/04/29 11:54:30;;;;;;;0.50;0.50;;;;;;;25.81;32.03;95002.50;5071846;28;20445;-73